sensor_id;sensor_type;location;lat;lon;timestamp;pressure;altitude;pressure_sealevel;temperature;humidity
71004;BME280;59025;42.050;-8.660;2022-11-27T00:00:07;101699.09;;;12.01;100.00
71004;BME280;59025;42.050;-8.660;2022-11-27T00:02:34;101703.91;;;11.90;100.00
71004;BME280;59025;42.050;-8.660;2022-11-27T00:05:02;101696.78;;;11.77;100.00
71004;BME280;59025;42.050;-8.660;2022-11-27T00:07:29;101713.94;;;11.56;100.00
71004;BME280;59025;42.050;-8.660;2022-11-27T00:09:59;101722.69;;;11.32;100.00
71004;BME280;59025;42.050;-8.660;2022-11-27T00:12:27;101723.53;;;11.10;100.00
71004;BME280;59025;42.050;-8.660;2022-11-27T00:14:56;101735.75;;;10.71;100.00
71004;BME280;59025;42.050;-8.660;2022-11-27T00:17:23;101750.56;;;10.47;100.00
71004;BME280;59025;42.050;-8.660;2022-11-27T00:19:51;101749.50;;;10.33;100.00
71004;BME280;59025;42.050;-8.660;2022-11-27T00:22:18;101751.56;;;10.38;100.00
71004;BME280;59025;42.050;-8.660;2022-11-27T00:24:46;101746.09;;;10.41;100.00
71004;BME280;59025;42.050;-8.660;2022-11-27T00:27:13;101747.84;;;10.40;100.00
71004;BME280;59025;42.050;-8.660;2022-11-27T00:29:41;101741.56;;;10.43;100.00
71004;BME280;59025;42.050;-8.660;2022-11-27T00:32:11;101746.53;;;10.44;100.00
71004;BME280;59025;42.050;-8.660;2022-11-27T00:34:38;101741.41;;;10.44;100.00
71004;BME280;59025;42.050;-8.660;2022-11-27T00:37:06;101735.44;;;10.44;100.00
71004;BME280;59025;42.050;-8.660;2022-11-27T00:39:33;101735.28;;;10.45;100.00
71004;BME280;59025;42.050;-8.660;2022-11-27T00:42:01;101720.13;;;10.50;100.00
71004;BME280;59025;42.050;-8.660;2022-11-27T00:44:28;101715.97;;;10.49;100.00
71004;BME280;59025;42.050;-8.660;2022-11-27T00:46:56;101712.22;;;10.52;100.00
71004;BME280;59025;42.050;-8.660;2022-11-27T00:49:25;101720.59;;;10.54;100.00
71004;BME280;59025;42.050;-8.660;2022-11-27T00:51:52;101712.34;;;10.58;100.00
71004;BME280;59025;42.050;-8.660;2022-11-27T00:54:20;101703.50;;;10.61;100.00
71004;BME280;59025;42.050;-8.660;2022-11-27T00:56:47;101700.75;;;10.62;100.00
71004;BME280;59025;42.050;-8.660;2022-11-27T00:59:15;101697.81;;;10.65;100.00
71004;BME280;59025;42.050;-8.660;2022-11-27T01:01:43;101693.50;;;10.66;100.00
71004;BME280;59025;42.050;-8.660;2022-11-27T01:04:12;101696.38;;;10.63;100.00
71004;BME280;59025;42.050;-8.660;2022-11-27T01:06:42;101696.06;;;10.66;100.00
71004;BME280;59025;42.050;-8.660;2022-11-27T01:09:10;101694.63;;;10.63;100.00
71004;BME280;59025;42.050;-8.660;2022-11-27T01:11:38;101696.75;;;10.60;100.00
71004;BME280;59025;42.050;-8.660;2022-11-27T01:14:09;101686.16;;;10.55;100.00
71004;BME280;59025;42.050;-8.660;2022-11-27T01:16:37;101684.03;;;10.58;100.00
71004;BME280;59025;42.050;-8.660;2022-11-27T01:19:05;101689.72;;;10.54;100.00
71004;BME280;59025;42.050;-8.660;2022-11-27T01:21:33;101692.56;;;10.59;100.00
71004;BME280;59025;42.050;-8.660;2022-11-27T01:24:03;101686.75;;;10.65;100.00
71004;BME280;59025;42.050;-8.660;2022-11-27T01:26:31;101681.59;;;10.65;100.00
71004;BME280;59025;42.050;-8.660;2022-11-27T01:28:59;101681.44;;;10.66;100.00
71004;BME280;59025;42.050;-8.660;2022-11-27T01:31:29;101678.66;;;10.68;100.00
71004;BME280;59025;42.050;-8.660;2022-11-27T01:33:58;101684.91;;;10.73;100.00
71004;BME280;59025;42.050;-8.660;2022-11-27T01:36:27;101680.84;;;10.79;100.00
71004;BME280;59025;42.050;-8.660;2022-11-27T01:38:55;101672.41;;;10.85;100.00
71004;BME280;59025;42.050;-8.660;2022-11-27T01:41:26;101679.97;;;10.86;100.00
71004;BME280;59025;42.050;-8.660;2022-11-27T01:43:55;101674.50;;;10.89;100.00
71004;BME280;59025;42.050;-8.660;2022-11-27T01:46:37;101669.25;;;10.97;100.00
71004;BME280;59025;42.050;-8.660;2022-11-27T01:49:22;101673.25;;;11.00;100.00
71004;BME280;59025;42.050;-8.660;2022-11-27T01:51:56;101668.44;;;10.97;100.00
71004;BME280;59025;42.050;-8.660;2022-11-27T01:54:27;101676.16;;;10.97;100.00
71004;BME280;59025;42.050;-8.660;2022-11-27T01:56:59;101674.13;;;10.92;100.00
71004;BME280;59025;42.050;-8.660;2022-11-27T01:59:29;101678.50;;;10.92;100.00
71004;BME280;59025;42.050;-8.660;2022-11-27T02:01:56;101670.13;;;10.90;100.00
71004;BME280;59025;42.050;-8.660;2022-11-27T02:04:24;101673.69;;;10.89;100.00
71004;BME280;59025;42.050;-8.660;2022-11-27T02:06:52;101669.84;;;10.85;100.00
71004;BME280;59025;42.050;-8.660;2022-11-27T02:09:21;101664.69;;;10.85;100.00
71004;BME280;59025;42.050;-8.660;2022-11-27T02:11:54;101658.41;;;10.87;100.00
71004;BME280;59025;42.050;-8.660;2022-11-27T02:14:31;101654.34;;;10.93;100.00
71004;BME280;59025;42.050;-8.660;2022-11-27T02:17:07;101648.09;;;10.87;100.00
71004;BME280;59025;42.050;-8.660;2022-11-27T02:19:54;101651.22;;;10.97;100.00
71004;BME280;59025;42.050;-8.660;2022-11-27T02:22:35;101653.91;;;10.89;100.00
71004;BME280;59025;42.050;-8.660;2022-11-27T02:25:10;101649.53;;;10.90;100.00
71004;BME280;59025;42.050;-8.660;2022-11-27T02:27:55;101652.81;;;10.84;100.00
71004;BME280;59025;42.050;-8.660;2022-11-27T02:30:25;101642.22;;;10.79;100.00
71004;BME280;59025;42.050;-8.660;2022-11-27T02:32:56;101646.81;;;10.69;100.00
71004;BME280;59025;42.050;-8.660;2022-11-27T02:35:29;101641.88;;;10.82;100.00
71004;BME280;59025;42.050;-8.660;2022-11-27T02:37:59;101631.69;;;10.51;100.00
71004;BME280;59025;42.050;-8.660;2022-11-27T02:40:32;101639.91;;;10.47;100.00
71004;BME280;59025;42.050;-8.660;2022-11-27T02:43:07;101630.59;;;10.23;100.00
71004;BME280;59025;42.050;-8.660;2022-11-27T02:48:07;101643.09;;;9.57;100.00
71004;BME280;59025;42.050;-8.660;2022-11-27T02:50:38;101656.47;;;9.37;100.00
71004;BME280;59025;42.050;-8.660;2022-11-27T02:53:08;101650.75;;;9.19;100.00
71004;BME280;59025;42.050;-8.660;2022-11-27T02:55:38;101668.44;;;9.06;100.00
71004;BME280;59025;42.050;-8.660;2022-11-27T02:58:09;101667.94;;;8.94;100.00
71004;BME280;59025;42.050;-8.660;2022-11-27T03:00:41;101674.03;;;8.85;100.00
71004;BME280;59025;42.050;-8.660;2022-11-27T03:03:12;101668.91;;;8.77;100.00
71004;BME280;59025;42.050;-8.660;2022-11-27T03:05:44;101669.06;;;8.76;100.00
71004;BME280;59025;42.050;-8.660;2022-11-27T03:08:19;101669.53;;;8.71;100.00
71004;BME280;59025;42.050;-8.660;2022-11-27T03:10:52;101679.16;;;8.77;100.00
71004;BME280;59025;42.050;-8.660;2022-11-27T03:13:21;101668.28;;;8.75;100.00
71004;BME280;59025;42.050;-8.660;2022-11-27T03:15:59;101670.97;;;8.58;100.00
71004;BME280;59025;42.050;-8.660;2022-11-27T03:18:36;101682.50;;;8.54;100.00
71004;BME280;59025;42.050;-8.660;2022-11-27T03:21:12;101672.59;;;8.75;100.00
71004;BME280;59025;42.050;-8.660;2022-11-27T03:23:46;101667.13;;;8.86;100.00
71004;BME280;59025;42.050;-8.660;2022-11-27T03:26:13;101662.50;;;8.81;100.00
71004;BME280;59025;42.050;-8.660;2022-11-27T03:28:42;101653.53;;;8.69;100.00
71004;BME280;59025;42.050;-8.660;2022-11-27T03:31:12;101660.72;;;8.58;100.00
71004;BME280;59025;42.050;-8.660;2022-11-27T03:33:40;101663.44;;;8.56;100.00
71004;BME280;59025;42.050;-8.660;2022-11-27T03:36:12;101658.00;;;8.67;100.00
71004;BME280;59025;42.050;-8.660;2022-11-27T03:38:41;101642.91;;;8.80;100.00
71004;BME280;59025;42.050;-8.660;2022-11-27T03:41:12;101643.56;;;8.74;100.00
71004;BME280;59025;42.050;-8.660;2022-11-27T03:43:51;101638.44;;;8.66;100.00
71004;BME280;59025;42.050;-8.660;2022-11-27T03:46:29;101635.06;;;8.66;100.00
71004;BME280;59025;42.050;-8.660;2022-11-27T03:49:08;101634.41;;;8.72;100.00
71004;BME280;59025;42.050;-8.660;2022-11-27T03:51:44;101627.84;;;8.77;100.00
71004;BME280;59025;42.050;-8.660;2022-11-27T03:54:18;101632.81;;;8.71;100.00
71004;BME280;59025;42.050;-8.660;2022-11-27T03:56:54;101635.88;;;8.98;100.00
71004;BME280;59025;42.050;-8.660;2022-11-27T03:59:27;101631.84;;;9.12;100.00
71004;BME280;59025;42.050;-8.660;2022-11-27T04:01:57;101636.44;;;9.24;100.00
71004;BME280;59025;42.050;-8.660;2022-11-27T04:04:25;101627.41;;;9.36;100.00
71004;BME280;59025;42.050;-8.660;2022-11-27T04:06:52;101610.06;;;9.46;100.00
71004;BME280;59025;42.050;-8.660;2022-11-27T04:09:20;101607.00;;;9.51;100.00
71004;BME280;59025;42.050;-8.660;2022-11-27T04:11:47;101597.19;;;9.54;100.00
71004;BME280;59025;42.050;-8.660;2022-11-27T04:14:15;101586.41;;;9.59;100.00
71004;BME280;59025;42.050;-8.660;2022-11-27T04:16:43;101584.59;;;9.67;100.00
71004;BME280;59025;42.050;-8.660;2022-11-27T04:19:11;101587.19;;;9.67;100.00
71004;BME280;59025;42.050;-8.660;2022-11-27T04:21:39;101588.09;;;9.74;100.00
71004;BME280;59025;42.050;-8.660;2022-11-27T04:24:07;101592.34;;;9.90;100.00
71004;BME280;59025;42.050;-8.660;2022-11-27T04:26:34;101598.06;;;10.00;100.00
71004;BME280;59025;42.050;-8.660;2022-11-27T04:29:02;101595.19;;;10.03;100.00
71004;BME280;59025;42.050;-8.660;2022-11-27T04:31:29;101589.69;;;10.14;100.00
71004;BME280;59025;42.050;-8.660;2022-11-27T04:33:57;101584.63;;;10.20;100.00
71004;BME280;59025;42.050;-8.660;2022-11-27T04:36:26;101579.91;;;10.32;100.00
71004;BME280;59025;42.050;-8.660;2022-11-27T04:38:53;101578.38;;;10.37;100.00
71004;BME280;59025;42.050;-8.660;2022-11-27T04:41:20;101579.38;;;10.36;100.00
71004;BME280;59025;42.050;-8.660;2022-11-27T04:43:48;101579.94;;;10.46;100.00
71004;BME280;59025;42.050;-8.660;2022-11-27T04:46:15;101582.13;;;10.72;100.00
71004;BME280;59025;42.050;-8.660;2022-11-27T04:48:43;101556.94;;;10.96;100.00
71004;BME280;59025;42.050;-8.660;2022-11-27T04:51:10;101543.97;;;10.90;100.00
71004;BME280;59025;42.050;-8.660;2022-11-27T04:53:39;101533.66;;;10.75;100.00
71004;BME280;59025;42.050;-8.660;2022-11-27T04:56:07;101536.22;;;10.61;100.00
71004;BME280;59025;42.050;-8.660;2022-11-27T04:58:34;101538.94;;;10.45;100.00
71004;BME280;59025;42.050;-8.660;2022-11-27T05:01:02;101547.72;;;10.36;100.00
71004;BME280;59025;42.050;-8.660;2022-11-27T05:03:29;101547.16;;;10.26;100.00
71004;BME280;59025;42.050;-8.660;2022-11-27T05:05:57;101554.91;;;10.18;100.00
71004;BME280;59025;42.050;-8.660;2022-11-27T05:08:25;101557.69;;;10.16;100.00
71004;BME280;59025;42.050;-8.660;2022-11-27T05:11:02;101550.75;;;10.17;100.00
71004;BME280;59025;42.050;-8.660;2022-11-27T05:13:30;101546.34;;;10.25;100.00
71004;BME280;59025;42.050;-8.660;2022-11-27T05:15:57;101551.94;;;10.29;100.00
71004;BME280;59025;42.050;-8.660;2022-11-27T05:18:25;101545.66;;;10.31;100.00
71004;BME280;59025;42.050;-8.660;2022-11-27T05:20:56;101561.78;;;10.25;100.00
71004;BME280;59025;42.050;-8.660;2022-11-27T05:23:24;101579.09;;;10.31;100.00
71004;BME280;59025;42.050;-8.660;2022-11-27T05:25:51;101585.09;;;10.46;100.00
71004;BME280;59025;42.050;-8.660;2022-11-27T05:28:21;101569.94;;;10.51;100.00
71004;BME280;59025;42.050;-8.660;2022-11-27T05:30:49;101550.50;;;10.63;100.00
71004;BME280;59025;42.050;-8.660;2022-11-27T05:33:17;101534.91;;;10.79;100.00
71004;BME280;59025;42.050;-8.660;2022-11-27T05:35:45;101536.34;;;10.96;100.00
71004;BME280;59025;42.050;-8.660;2022-11-27T05:38:12;101515.91;;;11.09;100.00
71004;BME280;59025;42.050;-8.660;2022-11-27T05:40:40;101528.00;;;11.23;100.00
71004;BME280;59025;42.050;-8.660;2022-11-27T05:43:07;101518.00;;;11.35;100.00
71004;BME280;59025;42.050;-8.660;2022-11-27T05:45:37;101518.81;;;11.35;100.00
71004;BME280;59025;42.050;-8.660;2022-11-27T05:48:05;101533.75;;;11.25;100.00
71004;BME280;59025;42.050;-8.660;2022-11-27T05:50:32;101526.00;;;11.40;100.00
71004;BME280;59025;42.050;-8.660;2022-11-27T05:53:00;101516.81;;;11.52;100.00
71004;BME280;59025;42.050;-8.660;2022-11-27T05:55:27;101487.66;;;11.66;100.00
71004;BME280;59025;42.050;-8.660;2022-11-27T05:57:55;101482.06;;;11.83;100.00
71004;BME280;59025;42.050;-8.660;2022-11-27T06:00:23;101470.09;;;11.97;100.00
71004;BME280;59025;42.050;-8.660;2022-11-27T06:02:54;101463.50;;;12.15;100.00
71004;BME280;59025;42.050;-8.660;2022-11-27T06:05:22;101462.41;;;12.24;100.00
71004;BME280;59025;42.050;-8.660;2022-11-27T06:07:50;101452.91;;;12.31;100.00
71004;BME280;59025;42.050;-8.660;2022-11-27T06:10:17;101461.91;;;12.42;100.00
71004;BME280;59025;42.050;-8.660;2022-11-27T06:12:45;101469.28;;;12.45;100.00
71004;BME280;59025;42.050;-8.660;2022-11-27T06:15:12;101470.19;;;12.65;100.00
71004;BME280;59025;42.050;-8.660;2022-11-27T06:17:40;101469.75;;;12.61;100.00
71004;BME280;59025;42.050;-8.660;2022-11-27T06:20:09;101467.19;;;12.61;100.00
71004;BME280;59025;42.050;-8.660;2022-11-27T06:22:37;101460.09;;;12.70;100.00
71004;BME280;59025;42.050;-8.660;2022-11-27T06:25:05;101455.38;;;12.80;100.00
71004;BME280;59025;42.050;-8.660;2022-11-27T06:27:33;101463.13;;;12.80;100.00
71004;BME280;59025;42.050;-8.660;2022-11-27T06:30:00;101462.16;;;12.87;100.00
71004;BME280;59025;42.050;-8.660;2022-11-27T06:32:28;101450.03;;;12.81;100.00
71004;BME280;59025;42.050;-8.660;2022-11-27T06:34:56;101464.56;;;12.89;100.00
71004;BME280;59025;42.050;-8.660;2022-11-27T06:37:25;101457.19;;;12.86;100.00
71004;BME280;59025;42.050;-8.660;2022-11-27T06:39:53;101453.66;;;12.93;100.00
71004;BME280;59025;42.050;-8.660;2022-11-27T06:42:22;101452.06;;;12.92;100.00
71004;BME280;59025;42.050;-8.660;2022-11-27T06:44:49;101443.28;;;12.87;100.00
71004;BME280;59025;42.050;-8.660;2022-11-27T06:47:17;101435.31;;;12.82;100.00
71004;BME280;59025;42.050;-8.660;2022-11-27T06:49:44;101439.84;;;12.73;100.00
71004;BME280;59025;42.050;-8.660;2022-11-27T06:52:12;101426.94;;;12.73;100.00
71004;BME280;59025;42.050;-8.660;2022-11-27T06:54:41;101431.09;;;12.68;100.00
71004;BME280;59025;42.050;-8.660;2022-11-27T06:57:08;101424.97;;;12.75;100.00
71004;BME280;59025;42.050;-8.660;2022-11-27T06:59:36;101411.00;;;12.63;100.00
71004;BME280;59025;42.050;-8.660;2022-11-27T07:02:03;101421.34;;;12.70;100.00
71004;BME280;59025;42.050;-8.660;2022-11-27T07:04:31;101413.06;;;12.74;100.00
71004;BME280;59025;42.050;-8.660;2022-11-27T07:06:58;101404.69;;;12.72;100.00
71004;BME280;59025;42.050;-8.660;2022-11-27T07:09:26;101409.50;;;12.82;100.00
71004;BME280;59025;42.050;-8.660;2022-11-27T07:11:55;101399.56;;;12.79;100.00
71004;BME280;59025;42.050;-8.660;2022-11-27T07:14:22;101396.97;;;12.79;100.00
71004;BME280;59025;42.050;-8.660;2022-11-27T07:16:50;101396.56;;;12.75;100.00
71004;BME280;59025;42.050;-8.660;2022-11-27T07:19:17;101397.75;;;12.79;100.00
71004;BME280;59025;42.050;-8.660;2022-11-27T07:21:45;101404.72;;;12.79;100.00
71004;BME280;59025;42.050;-8.660;2022-11-27T07:24:12;101406.34;;;12.86;100.00
71004;BME280;59025;42.050;-8.660;2022-11-27T07:26:40;101394.81;;;12.82;100.00
71004;BME280;59025;42.050;-8.660;2022-11-27T07:29:09;101398.78;;;12.85;100.00
71004;BME280;59025;42.050;-8.660;2022-11-27T07:31:36;101394.84;;;12.89;100.00
71004;BME280;59025;42.050;-8.660;2022-11-27T07:34:04;101398.38;;;12.88;100.00
71004;BME280;59025;42.050;-8.660;2022-11-27T07:36:32;101389.66;;;12.89;100.00
71004;BME280;59025;42.050;-8.660;2022-11-27T07:38:59;101390.44;;;12.89;100.00
71004;BME280;59025;42.050;-8.660;2022-11-27T07:41:27;101386.69;;;12.92;100.00
71004;BME280;59025;42.050;-8.660;2022-11-27T07:43:54;101375.34;;;12.93;100.00
71004;BME280;59025;42.050;-8.660;2022-11-27T07:46:23;101374.19;;;12.95;100.00
71004;BME280;59025;42.050;-8.660;2022-11-27T07:48:51;101384.50;;;12.95;100.00
71004;BME280;59025;42.050;-8.660;2022-11-27T07:51:20;101388.72;;;12.96;100.00
71004;BME280;59025;42.050;-8.660;2022-11-27T07:53:48;101391.13;;;13.04;100.00
71004;BME280;59025;42.050;-8.660;2022-11-27T07:56:17;101398.47;;;13.01;100.00
71004;BME280;59025;42.050;-8.660;2022-11-27T07:58:45;101395.72;;;13.09;100.00
71004;BME280;59025;42.050;-8.660;2022-11-27T08:01:14;101398.88;;;13.04;100.00
71004;BME280;59025;42.050;-8.660;2022-11-27T08:03:43;101394.53;;;13.11;100.00
71004;BME280;59025;42.050;-8.660;2022-11-27T08:06:16;101386.19;;;13.22;100.00
71004;BME280;59025;42.050;-8.660;2022-11-27T08:08:44;101384.22;;;13.31;100.00
71004;BME280;59025;42.050;-8.660;2022-11-27T08:11:20;101395.56;;;13.30;100.00
71004;BME280;59025;42.050;-8.660;2022-11-27T08:13:48;101384.63;;;13.28;100.00
71004;BME280;59025;42.050;-8.660;2022-11-27T08:16:16;101392.97;;;13.23;100.00
71004;BME280;59025;42.050;-8.660;2022-11-27T08:18:45;101395.72;;;13.15;100.00
71004;BME280;59025;42.050;-8.660;2022-11-27T08:21:13;101394.94;;;13.15;100.00
71004;BME280;59025;42.050;-8.660;2022-11-27T08:23:40;101408.19;;;12.99;100.00
71004;BME280;59025;42.050;-8.660;2022-11-27T08:26:08;101413.09;;;12.87;100.00
71004;BME280;59025;42.050;-8.660;2022-11-27T08:28:37;101424.16;;;12.75;100.00
71004;BME280;59025;42.050;-8.660;2022-11-27T08:31:06;101434.44;;;12.62;100.00
71004;BME280;59025;42.050;-8.660;2022-11-27T08:33:34;101453.69;;;12.59;100.00
71004;BME280;59025;42.050;-8.660;2022-11-27T08:36:04;101466.53;;;12.53;100.00
71004;BME280;59025;42.050;-8.660;2022-11-27T08:38:32;101462.88;;;12.41;100.00
71004;BME280;59025;42.050;-8.660;2022-11-27T08:41:01;101466.50;;;12.46;100.00
71004;BME280;59025;42.050;-8.660;2022-11-27T08:43:29;101480.59;;;12.44;100.00
71004;BME280;59025;42.050;-8.660;2022-11-27T08:45:57;101501.19;;;12.37;100.00
71004;BME280;59025;42.050;-8.660;2022-11-27T08:48:25;101515.44;;;12.33;100.00
71004;BME280;59025;42.050;-8.660;2022-11-27T08:50:53;101518.00;;;12.27;100.00
71004;BME280;59025;42.050;-8.660;2022-11-27T08:53:22;101529.66;;;12.23;100.00
71004;BME280;59025;42.050;-8.660;2022-11-27T08:55:49;101539.13;;;12.16;100.00
71004;BME280;59025;42.050;-8.660;2022-11-27T08:58:17;101548.47;;;12.17;100.00
71004;BME280;59025;42.050;-8.660;2022-11-27T09:00:44;101567.59;;;12.08;100.00
71004;BME280;59025;42.050;-8.660;2022-11-27T09:03:15;101586.56;;;12.00;100.00
71004;BME280;59025;42.050;-8.660;2022-11-27T09:05:42;101589.34;;;11.99;100.00
71004;BME280;59025;42.050;-8.660;2022-11-27T09:08:10;101606.09;;;11.88;100.00
71004;BME280;59025;42.050;-8.660;2022-11-27T09:10:42;101599.03;;;11.76;100.00
71004;BME280;59025;42.050;-8.660;2022-11-27T09:13:10;101609.09;;;11.71;100.00
71004;BME280;59025;42.050;-8.660;2022-11-27T09:15:37;101603.94;;;11.71;100.00
71004;BME280;59025;42.050;-8.660;2022-11-27T09:18:05;101620.19;;;11.71;100.00
71004;BME280;59025;42.050;-8.660;2022-11-27T09:20:33;101618.16;;;11.67;100.00
71004;BME280;59025;42.050;-8.660;2022-11-27T09:23:00;101637.59;;;11.55;100.00
71004;BME280;59025;42.050;-8.660;2022-11-27T09:25:28;101649.50;;;11.56;100.00
71004;BME280;59025;42.050;-8.660;2022-11-27T09:27:57;101667.53;;;11.56;100.00
71004;BME280;59025;42.050;-8.660;2022-11-27T09:30:25;101669.13;;;11.57;100.00
71004;BME280;59025;42.050;-8.660;2022-11-27T09:32:53;101674.28;;;11.57;100.00
71004;BME280;59025;42.050;-8.660;2022-11-27T09:35:20;101692.03;;;11.60;100.00
71004;BME280;59025;42.050;-8.660;2022-11-27T09:37:48;101695.38;;;11.60;100.00
71004;BME280;59025;42.050;-8.660;2022-11-27T09:40:16;101695.66;;;11.65;100.00
71004;BME280;59025;42.050;-8.660;2022-11-27T09:42:47;101716.81;;;11.61;100.00
71004;BME280;59025;42.050;-8.660;2022-11-27T09:45:18;101709.59;;;11.56;100.00
71004;BME280;59025;42.050;-8.660;2022-11-27T09:47:48;101701.34;;;11.75;100.00
71004;BME280;59025;42.050;-8.660;2022-11-27T09:50:23;101707.75;;;11.65;100.00
71004;BME280;59025;42.050;-8.660;2022-11-27T09:52:54;101703.38;;;11.65;100.00
71004;BME280;59025;42.050;-8.660;2022-11-27T09:55:27;101688.72;;;11.66;100.00
71004;BME280;59025;42.050;-8.660;2022-11-27T09:58:00;101699.66;;;11.68;100.00
71004;BME280;59025;42.050;-8.660;2022-11-27T10:00:30;101694.59;;;11.60;100.00
71004;BME280;59025;42.050;-8.660;2022-11-27T10:02:58;101686.50;;;11.63;100.00
71004;BME280;59025;42.050;-8.660;2022-11-27T10:05:31;101678.75;;;11.63;100.00
71004;BME280;59025;42.050;-8.660;2022-11-27T10:08:14;101683.81;;;11.56;100.00
71004;BME280;59025;42.050;-8.660;2022-11-27T10:10:56;101681.41;;;11.55;100.00
71004;BME280;59025;42.050;-8.660;2022-11-27T10:13:40;101680.97;;;11.51;100.00
71004;BME280;59025;42.050;-8.660;2022-11-27T10:16:20;101691.56;;;11.56;100.00
71004;BME280;59025;42.050;-8.660;2022-11-27T10:18:53;101692.06;;;11.52;100.00
71004;BME280;59025;42.050;-8.660;2022-11-27T10:21:26;101684.78;;;11.55;100.00
71004;BME280;59025;42.050;-8.660;2022-11-27T10:24:01;101688.47;;;11.61;100.00
71004;BME280;59025;42.050;-8.660;2022-11-27T10:26:35;101680.53;;;11.48;100.00
71004;BME280;59025;42.050;-8.660;2022-11-27T10:29:13;101676.16;;;11.48;100.00
71004;BME280;59025;42.050;-8.660;2022-11-27T10:31:50;101683.88;;;11.48;100.00
71004;BME280;59025;42.050;-8.660;2022-11-27T10:34:26;101675.38;;;11.48;100.00
71004;BME280;59025;42.050;-8.660;2022-11-27T10:37:00;101668.97;;;11.58;100.00
71004;BME280;59025;42.050;-8.660;2022-11-27T10:39:35;101646.91;;;11.56;100.00
71004;BME280;59025;42.050;-8.660;2022-11-27T10:42:09;101646.56;;;11.59;100.00
71004;BME280;59025;42.050;-8.660;2022-11-27T10:44:41;101634.34;;;11.61;100.00
71004;BME280;59025;42.050;-8.660;2022-11-27T10:47:13;101644.91;;;11.66;100.00
71004;BME280;59025;42.050;-8.660;2022-11-27T10:49:42;101631.75;;;11.61;100.00
71004;BME280;59025;42.050;-8.660;2022-11-27T10:52:14;101610.75;;;11.64;100.00
71004;BME280;59025;42.050;-8.660;2022-11-27T10:54:44;101618.16;;;11.67;100.00
71004;BME280;59025;42.050;-8.660;2022-11-27T10:57:42;101587.66;;;11.70;100.00
71004;BME280;59025;42.050;-8.660;2022-11-27T11:00:17;101562.38;;;11.80;100.00
71004;BME280;59025;42.050;-8.660;2022-11-27T11:02:59;101534.81;;;12.02;100.00
71004;BME280;59025;42.050;-8.660;2022-11-27T11:05:29;101513.25;;;12.09;100.00
71004;BME280;59025;42.050;-8.660;2022-11-27T11:08:00;101517.81;;;12.07;100.00
71004;BME280;59025;42.050;-8.660;2022-11-27T11:10:32;101556.78;;;11.77;100.00
71004;BME280;59025;42.050;-8.660;2022-11-27T11:13:21;101624.34;;;11.58;100.00
71004;BME280;59025;42.050;-8.660;2022-11-27T11:15:54;101646.31;;;11.54;100.00
71004;BME280;59025;42.050;-8.660;2022-11-27T11:18:26;101640.91;;;11.63;100.00
71004;BME280;59025;42.050;-8.660;2022-11-27T11:20:55;101646.03;;;11.78;100.00
71004;BME280;59025;42.050;-8.660;2022-11-27T11:23:33;101658.53;;;11.95;100.00
71004;BME280;59025;42.050;-8.660;2022-11-27T11:26:05;101654.19;;;11.96;100.00
71004;BME280;59025;42.050;-8.660;2022-11-27T11:28:39;101650.19;;;11.93;100.00
71004;BME280;59025;42.050;-8.660;2022-11-27T11:31:15;101621.56;;;11.88;100.00
71004;BME280;59025;42.050;-8.660;2022-11-27T11:33:52;101585.78;;;12.00;100.00
71004;BME280;59025;42.050;-8.660;2022-11-27T11:36:22;101533.81;;;12.03;100.00
71004;BME280;59025;42.050;-8.660;2022-11-27T11:38:50;101548.78;;;12.07;100.00
71004;BME280;59025;42.050;-8.660;2022-11-27T11:41:19;101573.84;;;12.13;100.00
71004;BME280;59025;42.050;-8.660;2022-11-27T11:43:53;101594.91;;;12.17;100.00
71004;BME280;59025;42.050;-8.660;2022-11-27T11:46:23;101617.69;;;12.13;100.00
71004;BME280;59025;42.050;-8.660;2022-11-27T11:48:59;101617.69;;;12.13;100.00
71004;BME280;59025;42.050;-8.660;2022-11-27T11:51:48;101606.81;;;12.18;100.00
71004;BME280;59025;42.050;-8.660;2022-11-27T11:54:34;101612.47;;;12.28;100.00
71004;BME280;59025;42.050;-8.660;2022-11-27T11:57:22;101604.72;;;12.28;100.00
71004;BME280;59025;42.050;-8.660;2022-11-27T12:00:00;101620.22;;;12.28;100.00
71004;BME280;59025;42.050;-8.660;2022-11-27T12:02:37;101606.91;;;12.31;100.00
71004;BME280;59025;42.050;-8.660;2022-11-27T12:05:19;101564.38;;;12.48;100.00
71004;BME280;59025;42.050;-8.660;2022-11-27T12:08:02;101533.84;;;12.79;100.00
71004;BME280;59025;42.050;-8.660;2022-11-27T12:10:42;101544.81;;;12.87;100.00
71004;BME280;59025;42.050;-8.660;2022-11-27T12:13:25;101564.19;;;12.77;100.00
71004;BME280;59025;42.050;-8.660;2022-11-27T12:16:02;101569.94;;;12.72;100.00
71004;BME280;59025;42.050;-8.660;2022-11-27T12:18:41;101561.41;;;12.72;100.00
71004;BME280;59025;42.050;-8.660;2022-11-27T12:21:15;101561.63;;;12.77;100.00
71004;BME280;59025;42.050;-8.660;2022-11-27T12:23:52;101554.69;;;12.77;100.00
71004;BME280;59025;42.050;-8.660;2022-11-27T12:26:34;101548.94;;;12.82;100.00
71004;BME280;59025;42.050;-8.660;2022-11-27T12:29:20;101545.59;;;12.88;100.00
71004;BME280;59025;42.050;-8.660;2022-11-27T12:32:04;101546.22;;;12.90;100.00
71004;BME280;59025;42.050;-8.660;2022-11-27T12:34:42;101542.75;;;12.76;100.00
71004;BME280;59025;42.050;-8.660;2022-11-27T12:37:26;101542.19;;;12.81;100.00
71004;BME280;59025;42.050;-8.660;2022-11-27T12:40:07;101545.81;;;12.86;100.00
71004;BME280;59025;42.050;-8.660;2022-11-27T12:42:44;101549.81;;;12.89;100.00
71004;BME280;59025;42.050;-8.660;2022-11-27T12:45:18;101535.66;;;12.85;100.00
71004;BME280;59025;42.050;-8.660;2022-11-27T12:47:51;101544.59;;;12.82;100.00
71004;BME280;59025;42.050;-8.660;2022-11-27T12:50:31;101536.25;;;12.87;100.00